Time;durP1;ratioP1;P1;durP2;ratioP2;P2;SDS_P1;SDS_P2;PMS_P1;PMS_P2;Temp;Humidity;BMP_temperature;BMP_pressure;BME280_temperature;BME280_humidity;BME280_pressure;Samples;Min_cycle;Max_cycle;Signal;HPM_P1;HPM_P2
2021/05/13 00:00:17;;;;;;;7.80;4.07;;;;;;;13.44;55.09;100001.23;126213;1098;104226;-77
2021/05/13 00:03:06;;;;;;;10.70;3.90;;;;;;;13.46;55.28;100015.34;126255;1099;111948;-77
2021/05/13 00:05:35;;;;;;;8.63;4.20;;;;;;;13.47;55.37;100001.28;126282;1099;104140;-76
2021/05/13 00:08:05;;;;;;;8.53;4.13;;;;;;;13.50;55.38;100004.84;126311;1099;104195;-78
2021/05/13 00:10:35;;;;;;;8.25;4.30;;;;;;;13.50;55.46;100005.72;126302;1099;104208;-77
2021/05/13 00:13:06;;;;;;;7.87;4.60;;;;;;;13.49;55.40;100001.30;126200;1099;104146;-77
2021/05/13 00:15:39;;;;;;;9.77;4.23;;;;;;;13.47;55.33;100001.28;126260;1099;104147;-77
2021/05/13 00:18:08;;;;;;;9.03;4.10;;;;;;;13.47;55.10;99990.73;126333;1099;104137;-77
2021/05/13 00:20:41;;;;;;;11.37;4.00;;;;;;;13.46;55.60;99991.63;126304;1098;104243;-77
2021/05/13 00:23:11;;;;;;;8.53;3.63;;;;;;;13.43;55.79;99983.66;126234;1099;104185;-77
2021/05/13 00:25:41;;;;;;;9.23;3.90;;;;;;;13.39;55.27;99984.47;126292;1099;104166;-77
2021/05/13 00:28:11;;;;;;;9.23;4.20;;;;;;;13.36;55.72;99978.27;126273;1099;104136;-77
2021/05/13 00:30:40;;;;;;;6.47;3.80;;;;;;;13.31;55.39;99971.13;126273;1099;104140;-77
2021/05/13 00:33:09;;;;;;;5.83;3.70;;;;;;;13.27;55.60;99964.03;126192;1099;104158;-77
2021/05/13 00:35:38;;;;;;;7.67;4.20;;;;;;;13.25;55.25;99976.30;126260;1099;104309;-77
2021/05/13 00:38:08;;;;;;;11.33;4.50;;;;;;;13.25;55.88;99976.30;126329;1099;104192;-77
2021/05/13 00:40:37;;;;;;;8.50;4.20;;;;;;;13.26;55.60;99980.72;126252;1099;104335;-77
2021/05/13 00:43:06;;;;;;;8.37;4.60;;;;;;;13.27;55.36;99976.33;126151;1099;104162;-76
2021/05/13 00:45:35;;;;;;;10.13;4.40;;;;;;;13.27;55.54;99974.56;126293;1099;104146;-77
2021/05/13 00:48:06;;;;;;;8.57;3.93;;;;;;;13.26;55.50;99971.91;126218;1099;104140;-77
2021/05/13 00:50:35;;;;;;;8.47;4.03;;;;;;;13.24;55.50;99971.88;126295;1099;104204;-77
2021/05/13 00:53:07;;;;;;;9.63;4.30;;;;;;;13.23;55.38;99985.94;126097;1099;104226;-78
2021/05/13 00:55:37;;;;;;;9.95;4.30;;;;;;;13.22;55.44;99980.64;126240;1098;104191;-78
2021/05/13 00:58:08;;;;;;;10.03;4.37;;;;;;;13.23;55.57;99978.03;126257;1099;104133;-77
2021/05/13 01:00:45;;;;;;;7.90;4.07;;;;;;;13.25;55.97;99978.06;126298;1099;104254;-77
2021/05/13 01:03:14;;;;;;;8.20;3.93;;;;;;;13.22;56.07;99989.42;126251;1099;101794;-77
2021/05/13 01:05:43;;;;;;;13.57;4.20;;;;;;;13.22;56.27;99999.96;126330;1099;104185;-78
2021/05/13 01:08:12;;;;;;;11.27;3.70;;;;;;;13.24;56.41;100000.86;126312;1099;104156;-77
2021/05/13 01:10:42;;;;;;;8.20;3.80;;;;;;;13.25;56.17;100000.02;126261;1099;104248;-77
2021/05/13 01:13:15;;;;;;;8.43;4.13;;;;;;;13.25;56.18;99985.97;126217;1099;104191;-78
2021/05/13 01:15:48;;;;;;;9.83;4.40;;;;;;;13.23;56.27;99987.66;126297;1098;104134;-76
2021/05/13 01:18:19;;;;;;;8.63;4.23;;;;;;;13.15;56.63;99977.03;126228;1099;104226;-77
2021/05/13 01:20:51;;;;;;;7.20;3.70;;;;;;;13.08;56.89;99978.66;126299;1099;104239;-76
2021/05/13 01:23:21;;;;;;;10.80;4.13;;;;;;;13.02;56.78;99981.17;126226;1099;104189;-76
2021/05/13 01:25:54;;;;;;;8.87;4.20;;;;;;;12.99;57.10;99970.59;126261;1099;104175;-77
2021/05/13 01:28:25;;;;;;;8.80;4.10;;;;;;;12.93;57.12;99962.58;126295;1099;104149;-77
2021/05/13 01:30:56;;;;;;;6.00;3.23;;;;;;;12.87;57.01;99958.12;126270;1099;104264;-76
2021/05/13 01:33:27;;;;;;;7.93;3.90;;;;;;;12.82;57.83;99957.13;126218;1099;105148;-78
2021/05/13 01:36:20;;;;;;;15.40;4.70;;;;;;;12.77;57.64;99957.04;126206;1099;104207;-76
2021/05/13 01:39:02;;;;;;;11.37;4.30;;;;;;;12.76;57.59;99951.75;125048;1105;104249;-77
2021/05/13 01:41:35;;;;;;;7.65;3.85;;;;;;;12.72;58.08;99958.71;125177;1105;104418;-76
2021/05/13 01:44:08;;;;;;;8.57;3.80;;;;;;;12.71;58.11;99953.42;124902;1105;104220;-76
2021/05/13 01:46:39;;;;;;;11.33;4.15;;;;;;;12.67;58.25;99963.02;125089;1105;104190;-76
2021/05/13 01:53:05;;;;;;;7.73;4.20;;;;;;;12.54;58.85;99961.91;124967;1106;104473;-76
2021/05/13 01:55:42;;;;;;;9.13;4.33;;;;;;;12.47;58.88;99960.00;125152;1105;102839;-76
2021/05/13 01:58:11;;;;;;;8.23;4.30;;;;;;;12.45;59.13;99959.09;125099;1102;104373;-76
2021/05/13 02:00:54;;;;;;;11.37;4.80;;;;;;;12.48;58.93;99960.88;125298;1102;104236;-76
2021/05/13 02:03:25;;;;;;;8.75;3.90;;;;;;;12.52;59.21;99958.34;125204;1102;102263;-77
2021/05/13 02:05:54;;;;;;;9.53;4.37;;;;;;;12.53;59.07;99956.61;125156;1102;104328;-76
2021/05/13 02:08:24;;;;;;;8.93;4.23;;;;;;;12.54;59.68;99954.02;125163;1102;104754;-76
2021/05/13 02:10:53;;;;;;;8.10;4.17;;;;;;;12.49;59.25;99950.38;125941;1099;104310;-77
2021/05/13 02:13:22;;;;;;;10.40;4.60;;;;;;;12.39;59.56;99951.96;126161;1099;104160;-78
2021/05/13 02:15:52;;;;;;;9.87;4.90;;;;;;;12.31;59.59;99947.39;126298;1098;104218;-77
2021/05/13 02:18:21;;;;;;;10.03;5.00;;;;;;;12.28;59.87;99942.98;126295;1099;104158;-78
2021/05/13 02:20:51;;;;;;;9.20;4.83;;;;;;;12.22;60.06;99934.96;126306;1099;104295;-78
2021/05/13 02:23:21;;;;;;;10.37;4.67;;;;;;;12.16;60.01;99935.72;126271;1099;104131;-77
2021/05/13 02:25:50;;;;;;;8.90;4.50;;;;;;;12.14;60.10;99934.80;126190;1099;104223;-77
2021/05/13 02:28:20;;;;;;;10.57;4.67;;;;;;;12.11;60.15;99926.86;126276;1099;104244;-78
2021/05/13 02:30:49;;;;;;;11.47;5.37;;;;;;;12.10;60.23;99937.34;126271;1099;104322;-77
2021/05/13 02:33:18;;;;;;;9.80;5.07;;;;;;;12.08;60.28;99929.42;126278;1099;104142;-77
2021/05/13 02:35:47;;;;;;;8.63;5.10;;;;;;;12.08;60.77;99942.57;126226;1098;104233;-77
2021/05/13 02:38:17;;;;;;;12.20;5.50;;;;;;;12.08;60.77;99934.68;126322;1099;104169;-78
2021/05/13 02:40:46;;;;;;;9.83;5.30;;;;;;;12.05;61.17;99937.25;125356;1099;104249;-78
2021/05/13 02:43:15;;;;;;;12.47;5.50;;;;;;;12.04;60.85;99943.35;126271;1099;104287;-77
2021/05/13 02:45:44;;;;;;;13.80;5.80;;;;;;;12.07;60.98;99943.41;126223;1099;104772;-77
2021/05/13 02:48:13;;;;;;;10.50;5.47;;;;;;;12.10;61.19;99938.22;126133;1099;104188;-77
2021/05/13 02:50:42;;;;;;;10.33;5.20;;;;;;;12.14;60.99;99945.33;125349;1099;104159;-77
2021/05/13 02:53:14;;;;;;;11.07;5.00;;;;;;;12.19;60.99;99937.53;126178;1099;104207;-77
2021/05/13 02:55:43;;;;;;;10.57;5.70;;;;;;;12.25;61.20;99942.00;126158;1099;104248;-77
2021/05/13 02:58:12;;;;;;;13.47;5.90;;;;;;;12.25;61.25;99945.55;126161;1099;104255;-76
2021/05/13 03:00:51;;;;;;;12.97;5.70;;;;;;;12.27;61.28;99933.30;126255;1099;104239;-76
2021/05/13 03:03:21;;;;;;;11.27;5.47;;;;;;;12.23;61.07;99929.73;126211;1099;104159;-77
2021/05/13 03:05:53;;;;;;;11.00;5.50;;;;;;;12.23;61.56;99926.20;126266;1099;104133;-76
2021/05/13 03:08:22;;;;;;;11.77;5.80;;;;;;;12.20;61.59;99929.67;126239;1099;104297;-76
2021/05/13 03:10:52;;;;;;;11.03;5.80;;;;;;;12.19;61.57;99932.27;126224;1099;104213;-77
2021/05/13 03:13:23;;;;;;;8.73;4.97;;;;;;;12.18;61.69;99931.36;126225;1099;104133;-76
2021/05/13 03:15:53;;;;;;;11.77;5.33;;;;;;;12.17;61.86;99934.88;126257;1099;104176;-77
2021/05/13 03:18:24;;;;;;;12.83;5.70;;;;;;;12.17;61.82;99932.24;126249;1099;104246;-77
2021/05/13 03:20:58;;;;;;;11.80;5.40;;;;;;;12.20;61.83;99932.30;126258;1099;104225;-75
2021/05/13 03:23:31;;;;;;;;;;;;;;;12.25;62.49;99926.22;126250;1099;104213;-75
2021/05/13 03:26:02;;;;;;;10.23;5.20;;;;;;;12.24;62.23;99938.50;126165;1099;104588;-77
2021/05/13 03:28:32;;;;;;;11.20;5.50;;;;;;;12.21;62.00;99935.81;126282;1099;105366;-76
2021/05/13 03:31:01;;;;;;;8.77;5.03;;;;;;;12.23;62.03;99939.34;126234;1099;104160;-76
2021/05/13 03:33:30;;;;;;;10.40;4.63;;;;;;;12.26;62.00;99938.53;126195;1099;104206;-76
2021/05/13 03:35:59;;;;;;;10.67;5.67;;;;;;;12.29;61.95;99946.48;126156;1099;103716;-76
2021/05/13 03:38:28;;;;;;;10.30;5.37;;;;;;;12.32;62.02;99943.91;126161;1099;104153;-76
2021/05/13 03:40:58;;;;;;;14.50;5.70;;;;;;;12.35;62.16;99949.23;126195;1099;104172;-76
2021/05/13 03:43:27;;;;;;;10.53;5.27;;;;;;;12.38;62.01;99934.39;126202;1099;104160;-77
2021/05/13 03:45:56;;;;;;;10.53;5.87;;;;;;;12.41;62.24;99934.45;126103;1099;104136;-77
2021/05/13 03:48:25;;;;;;;10.77;5.33;;;;;;;12.41;61.96;99926.55;126249;1099;104156;-77
2021/05/13 03:50:54;;;;;;;10.60;5.13;;;;;;;12.45;62.42;99924.89;126106;1099;104220;-77
2021/05/13 03:53:23;;;;;;;12.07;5.20;;;;;;;12.46;62.08;99929.27;126233;1099;104217;-76
2021/05/13 03:55:53;;;;;;;10.50;5.37;;;;;;;12.48;62.04;99924.95;126197;1099;104139;-76
2021/05/13 03:58:27;;;;;;;14.25;5.60;;;;;;;12.49;62.12;99931.09;126146;1099;104136;-76
2021/05/13 04:01:08;;;;;;;10.27;5.50;;;;;;;12.49;62.25;99925.83;126189;1099;104325;-75
2021/05/13 04:03:38;;;;;;;11.47;5.70;;;;;;;12.48;62.26;99922.31;126278;1099;104265;-77
2021/05/13 04:06:07;;;;;;;10.90;5.40;;;;;;;12.49;62.29;99923.19;126140;1099;104204;-76
2021/05/13 04:08:36;;;;;;;10.90;5.40;;;;;;;12.48;62.28;99929.30;126190;1099;104193;-75
2021/05/13 04:11:06;;;;;;;12.17;5.57;;;;;;;12.45;62.41;99919.63;126201;1099;104131;-77
2021/05/13 04:13:40;;;;;;;12.87;6.07;;;;;;;12.45;62.50;99923.98;126209;1099;101813;-80
2021/05/13 04:16:09;;;;;;;12.60;6.00;;;;;;;12.48;62.59;99924.95;126192;1099;104181;-79
2021/05/13 04:18:38;;;;;;;12.60;5.97;;;;;;;12.51;62.58;99926.73;126225;1099;104178;-77
2021/05/13 04:21:07;;;;;;;13.70;6.30;;;;;;;12.51;62.61;99934.63;126201;1099;104171;-78
2021/05/13 04:23:36;;;;;;;12.43;5.70;;;;;;;12.49;62.64;99924.06;126133;1098;104258;-77
2021/05/13 04:26:06;;;;;;;11.23;5.20;;;;;;;12.50;63.35;99924.98;126160;1099;104162;-78
2021/05/13 04:28:35;;;;;;;12.17;6.03;;;;;;;12.52;62.58;99921.49;126275;1099;104236;-78
2021/05/13 04:31:04;;;;;;;13.30;5.93;;;;;;;12.56;62.62;99918.07;126258;1099;104270;-79
2021/05/13 04:33:33;;;;;;;11.77;6.17;;;;;;;12.59;62.92;99918.13;126174;1099;104130;-78
2021/05/13 04:36:03;;;;;;;12.00;6.17;;;;;;;12.63;62.94;99919.06;126137;1099;104149;-79
2021/05/13 04:38:33;;;;;;;13.80;6.43;;;;;;;12.68;63.01;99908.61;126223;1099;104157;-78
2021/05/13 04:41:04;;;;;;;15.40;6.23;;;;;;;12.70;63.03;99906.88;126223;1098;104258;-79
2021/05/13 04:43:34;;;;;;;13.33;6.20;;;;;;;12.75;62.83;99902.61;126229;1099;104175;-77
2021/05/13 04:46:05;;;;;;;13.23;6.60;;;;;;;12.80;62.62;99903.56;126174;1099;104165;-78
2021/05/13 04:48:41;;;;;;;9.60;5.80;;;;;;;12.89;62.84;99905.48;125971;1099;109051;-78
2021/05/13 04:51:13;;;;;;;14.95;6.75;;;;;;;13.00;63.42;99900.39;126101;1099;104216;-79
2021/05/13 04:53:43;;;;;;;13.03;6.60;;;;;;;13.06;62.59;99898.73;126004;1099;104225;-79
2021/05/13 04:56:19;;;;;;;14.37;7.00;;;;;;;13.16;62.49;99904.15;126013;1099;104287;-78
2021/05/13 04:59:04;;;;;;;16.67;7.40;;;;;;;13.25;62.67;99897.27;125905;1100;118711;-81
2021/05/13 05:01:41;;;;;;;12.10;6.43;;;;;;;13.39;62.78;99894.87;125734;1099;104325;-79
2021/05/13 05:04:12;;;;;;;12.53;6.60;;;;;;;13.53;62.31;99895.06;125777;1099;104194;-78
2021/05/13 05:06:43;;;;;;;12.50;6.90;;;;;;;13.62;62.61;99887.29;125854;1099;104201;-78
2021/05/13 05:09:12;;;;;;;14.33;6.87;;;;;;;13.72;62.58;99888.28;125960;1099;106735;-78
2021/05/13 05:11:42;;;;;;;13.07;7.37;;;;;;;13.76;62.61;99889.20;125914;1098;104191;-79
2021/05/13 05:14:15;;;;;;;15.53;7.60;;;;;;;13.81;61.92;99880.50;125837;1099;104291;-79
2021/05/13 05:16:45;;;;;;;13.93;7.23;;;;;;;13.84;62.46;99883.17;125903;1099;104335;-79
2021/05/13 05:19:15;;;;;;;14.13;7.63;;;;;;;13.91;62.68;99876.21;125824;1099;105624;-78
2021/05/13 05:21:44;;;;;;;14.97;7.83;;;;;;;13.98;62.72;99874.55;126002;1099;104184;-78
2021/05/13 05:24:14;;;;;;;14.00;7.60;;;;;;;13.96;62.28;99874.53;125941;1099;104215;-79
2021/05/13 05:26:44;;;;;;;15.70;8.10;;;;;;;13.97;61.55;99873.64;125855;1099;104277;-78
2021/05/13 05:29:13;;;;;;;14.95;7.40;;;;;;;13.98;61.55;99870.16;125798;1099;104194;-77
2021/05/13 05:31:43;;;;;;;14.90;7.40;;;;;;;13.99;60.87;99878.94;125771;1099;104246;-78
2021/05/13 05:34:15;;;;;;;15.60;7.77;;;;;;;13.98;61.53;99874.55;125782;1099;104239;-80
2021/05/13 05:36:45;;;;;;;15.20;7.83;;;;;;;14.02;61.67;99869.33;125845;1098;104188;-78
2021/05/13 05:39:15;;;;;;;14.37;7.40;;;;;;;14.07;61.97;99865.84;125664;1099;104156;-78
2021/05/13 05:41:44;;;;;;;14.93;7.37;;;;;;;14.11;60.98;99860.62;125961;1099;104178;-77
2021/05/13 05:44:14;;;;;;;15.57;6.80;;;;;;;14.15;60.53;99864.20;126046;1099;105730;-80
2021/05/13 05:46:47;;;;;;;12.67;6.60;;;;;;;14.16;61.46;99863.31;125772;1099;104185;-77
2021/05/13 05:49:17;;;;;;;12.63;6.17;;;;;;;14.19;60.91;99860.70;125786;1099;104247;-78
2021/05/13 05:51:47;;;;;;;12.97;7.00;;;;;;;14.22;60.68;99865.14;125770;1097;104165;-77
2021/05/13 05:54:18;;;;;;;10.80;6.27;;;;;;;14.25;60.17;99855.49;125956;1099;103999;-77
2021/05/13 05:56:47;;;;;;;11.10;6.00;;;;;;;14.26;60.54;99859.91;125743;1099;104152;-77
2021/05/13 05:59:24;;;;;;;18.77;6.63;;;;;;;14.30;60.08;99866.97;125726;1098;104165;-79
2021/05/13 06:02:03;;;;;;;12.93;6.37;;;;;;;14.35;59.92;99857.37;125935;1099;104092;-78
2021/05/13 06:04:39;;;;;;;11.83;6.07;;;;;;;14.37;59.89;99854.75;125705;1099;104307;-79
2021/05/13 06:07:12;;;;;;;13.40;6.40;;;;;;;14.41;60.07;99860.93;125658;1099;104351;-78
2021/05/13 06:09:44;;;;;;;12.67;6.63;;;;;;;14.42;59.51;99863.58;125797;1099;104184;-78
2021/05/13 06:12:16;;;;;;;13.43;6.87;;;;;;;14.47;59.51;99860.98;125806;1099;104194;-79
2021/05/13 06:14:49;;;;;;;10.67;5.70;;;;;;;14.58;60.05;99859.33;125888;1099;104169;-79
2021/05/13 06:17:24;;;;;;;12.23;5.90;;;;;;;14.68;59.44;99869.15;125893;1099;104166;-80
2021/05/13 06:20:01;;;;;;;12.17;6.20;;;;;;;14.81;59.08;99866.61;125746;1099;104194;-78
2021/05/13 06:22:31;;;;;;;7.90;5.00;;;;;;;14.91;58.74;99869.34;125750;1099;104230;-78
2021/05/13 06:25:06;;;;;;;8.13;4.43;;;;;;;15.03;58.24;99855.33;125953;1099;104131;-79
2021/05/13 06:27:41;;;;;;;11.47;5.00;;;;;;;15.15;58.42;99857.18;125973;1099;104641;-77
2021/05/13 06:30:13;;;;;;;8.63;4.37;;;;;;;15.24;58.53;99840.52;125655;1099;104239;-78
2021/05/13 06:32:48;;;;;;;7.67;4.83;;;;;;;15.29;58.44;99849.34;125779;1099;104166;-78
2021/05/13 06:35:21;;;;;;;7.90;4.55;;;;;;;15.28;57.61;99832.58;125920;1098;104191;-78
2021/05/13 06:37:56;;;;;;;7.87;4.80;;;;;;;15.43;57.54;99847.66;125972;1099;104195;-78
2021/05/13 06:40:31;;;;;;;6.43;4.20;;;;;;;15.52;57.27;99845.92;125764;1099;104261;-78
2021/05/13 06:43:03;;;;;;;7.93;4.53;;;;;;;15.61;57.57;99845.97;125773;1099;104166;-79
2021/05/13 06:45:35;;;;;;;8.00;4.20;;;;;;;15.75;57.08;99846.94;125789;1099;104018;-78
2021/05/13 06:48:06;;;;;;;10.40;4.60;;;;;;;15.83;56.30;99846.10;125712;1099;104175;-78
2021/05/13 06:50:40;;;;;;;8.43;4.47;;;;;;;15.90;56.66;99850.55;125899;1099;104217;-78
2021/05/13 06:53:12;;;;;;;7.77;4.30;;;;;;;16.01;56.80;99856.75;125842;1099;104280;-78
2021/05/13 06:55:48;;;;;;;9.10;4.60;;;;;;;16.17;57.51;99847.99;125667;1099;104156;-80
2021/05/13 06:58:19;;;;;;;9.15;4.00;;;;;;;16.38;56.59;99856.85;125559;1099;104156;-76
2021/05/13 07:00:52;;;;;;;6.97;3.40;;;;;;;16.45;55.77;99848.02;125005;1099;102363;-77
2021/05/13 07:03:23;;;;;;;9.03;3.80;;;;;;;16.58;55.59;99846.29;125026;1099;104297;-77
2021/05/13 07:05:54;;;;;;;5.67;3.43;;;;;;;16.71;55.26;99849.81;125065;1099;105180;-77
2021/05/13 07:08:28;;;;;;;4.33;3.47;;;;;;;16.77;54.73;99841.00;125753;1099;104175;-77
2021/05/13 07:11:01;;;;;;;5.43;3.73;;;;;;;16.90;54.82;99845.42;125565;1099;104619;-76
2021/05/13 07:13:36;;;;;;;5.63;3.30;;;;;;;17.14;54.74;99840.97;125800;1099;104162;-77
2021/05/13 07:16:06;;;;;;;8.23;3.30;;;;;;;17.38;55.05;99851.53;125738;1099;104287;-77
2021/05/13 07:18:42;;;;;;;4.80;3.27;;;;;;;17.56;54.73;99847.05;125844;1099;104366;-78
2021/05/13 07:21:18;;;;;;;6.60;3.10;;;;;;;17.75;53.37;99839.94;125825;1099;104337;-77
2021/05/13 07:23:49;;;;;;;5.25;2.85;;;;;;;17.83;53.53;99839.91;125891;1099;104197;-78
2021/05/13 07:26:19;;;;;;;4.67;2.90;;;;;;;17.89;52.45;99835.47;125798;1099;104286;-77
2021/05/13 07:28:54;;;;;;;8.47;3.43;;;;;;;17.99;53.60;99830.99;125658;1099;104230;-77
2021/05/13 07:31:24;;;;;;;6.13;3.40;;;;;;;18.17;53.37;99839.73;125690;1098;102966;-77
2021/05/13 07:34:08;;;;;;;7.27;3.50;;;;;;;18.38;52.99;99828.11;125622;1099;104264;-77
2021/05/13 07:36:39;;;;;;;7.27;3.27;;;;;;;18.58;51.16;99847.44;125813;1099;104284;-78
2021/05/13 07:39:27;;;;;;;4.85;3.20;;;;;;;18.71;51.92;99832.27;125720;1099;104705;-77
2021/05/13 07:42:04;;;;;;;3.13;2.73;;;;;;;18.89;51.85;99833.94;125709;1099;104162;-78
2021/05/13 07:44:48;;;;;;;8.90;3.30;;;;;;;19.16;52.51;99832.77;125899;1099;104319;-78
2021/05/13 07:47:27;;;;;;;4.87;2.73;;;;;;;19.31;50.81;99837.06;125226;1099;104175;-79
2021/05/13 07:50:02;;;;;;;4.83;3.13;;;;;;;19.46;50.24;99829.80;125849;1099;104213;-77
2021/05/13 07:52:32;;;;;;;4.63;3.30;;;;;;;19.64;51.54;99816.28;125834;1099;104150;-77
2021/05/13 07:55:07;;;;;;;6.70;3.00;;;;;;;19.77;51.13;99826.81;125887;1099;104195;-78
2021/05/13 07:57:37;;;;;;;4.97;3.20;;;;;;;19.83;49.87;99832.92;125979;1099;104204;-79
2021/05/13 08:00:09;;;;;;;4.37;2.93;;;;;;;19.88;49.89;99823.13;125974;1099;104131;-77
2021/05/13 08:02:48;;;;;;;4.33;2.83;;;;;;;20.03;50.77;99821.15;125945;1099;104207;-77
2021/05/13 08:05:18;;;;;;;5.13;3.07;;;;;;;20.22;50.31;99819.09;125886;1099;104687;-77
2021/05/13 08:07:50;;;;;;;4.40;3.17;;;;;;;20.22;49.76;99827.08;125987;1099;104268;-77
2021/05/13 08:10:21;;;;;;;5.03;2.87;;;;;;;20.20;49.59;99832.43;126101;1099;104182;-76
2021/05/13 08:12:52;;;;;;;4.57;3.00;;;;;;;20.11;49.17;99830.77;125757;1099;104165;-77
2021/05/13 08:15:27;;;;;;;7.07;2.80;;;;;;;20.00;49.17;99832.71;126092;1099;104217;-81
2021/05/13 08:17:58;;;;;;;7.07;3.10;;;;;;;19.87;48.52;99837.33;126140;1099;104236;-78
2021/05/13 08:20:38;;;;;;;4.90;3.10;;;;;;;19.73;48.42;99826.81;125964;1099;104171;-78
2021/05/13 08:23:09;;;;;;;5.57;3.00;;;;;;;19.49;48.28;99832.43;125787;1099;104223;-76
2021/05/13 08:25:40;;;;;;;9.00;2.97;;;;;;;19.39;48.58;99821.89;125180;1099;104305;-77
2021/05/13 08:28:12;;;;;;;7.30;3.00;;;;;;;19.34;48.60;99834.37;126097;1099;104237;-76
2021/05/13 08:30:42;;;;;;;5.40;3.30;;;;;;;19.22;48.82;99834.50;126099;1099;104149;-77
2021/05/13 08:33:14;;;;;;;5.07;3.13;;;;;;;19.16;48.36;99831.90;125911;1099;102610;-77
2021/05/13 08:35:50;;;;;;;4.80;3.37;;;;;;;19.10;48.18;99826.64;125658;1099;104323;-78
2021/05/13 08:38:19;;;;;;;4.40;3.12;;;;;;;19.12;48.18;99830.16;125885;1099;102163;-77
2021/05/13 08:40:51;;;;;;;4.53;3.20;;;;;;;19.19;48.05;99830.08;126090;1099;104185;-77
2021/05/13 08:43:26;;;;;;;9.10;3.37;;;;;;;19.27;47.99;99837.98;126051;1099;105343;-79
2021/05/13 08:45:57;;;;;;;5.60;3.05;;;;;;;19.21;47.01;99835.38;125821;1099;104328;-79
2021/05/13 08:48:29;;;;;;;7.03;3.20;;;;;;;19.07;47.24;99827.55;126043;1099;104265;-78
2021/05/13 08:51:08;;;;;;;8.97;3.23;;;;;;;18.96;47.71;99843.59;126001;1099;102562;-77
2021/05/13 08:54:00;;;;;;;8.23;3.93;;;;;;;18.83;47.59;99833.95;125772;1099;105315;-78
2021/05/13 08:56:36;;;;;;;5.97;3.27;;;;;;;18.82;47.92;99827.77;125143;1099;104165;-78
2021/05/13 08:59:10;;;;;;;6.00;3.50;;;;;;;18.75;47.67;99836.67;125953;1099;104194;-78
2021/05/13 09:01:56;;;;;;;5.77;3.40;;;;;;;18.73;47.77;99840.23;125699;1099;104303;-77
2021/05/13 09:04:45;;;;;;;4.63;2.97;;;;;;;18.81;47.54;99833.09;125684;1099;108139;-76
2021/05/13 09:07:22;;;;;;;5.93;2.90;;;;;;;18.86;46.91;99829.52;125844;1099;104238;-79
2021/05/13 09:10:06;;;;;;;5.80;3.00;;;;;;;18.97;47.34;99828.55;125782;1099;104143;-77
2021/05/13 09:12:39;;;;;;;6.27;3.17;;;;;;;19.10;47.02;99831.96;125675;1099;105461;-77
2021/05/13 09:15:14;;;;;;;4.93;2.77;;;;;;;19.22;47.08;99827.39;125799;1099;104284;-76
2021/05/13 09:17:50;;;;;;;6.07;2.90;;;;;;;19.35;46.58;99840.56;125899;1099;104332;-78
2021/05/13 09:20:42;;;;;;;5.50;2.67;;;;;;;19.46;46.38;99838.69;125148;1099;104219;-78
2021/05/13 09:23:25;;;;;;;3.53;2.80;;;;;;;19.64;46.68;99824.27;125744;1099;104158;-79
2021/05/13 09:26:11;;;;;;;6.10;2.90;;;;;;;19.72;45.78;99822.38;125655;1099;104166;-80
2021/05/13 09:29:10;;;;;;;5.30;2.80;;;;;;;19.75;45.85;99827.67;125754;1099;104217;-80
2021/05/13 09:31:42;;;;;;;7.60;2.90;;;;;;;19.84;46.66;99837.36;125708;1099;104189;-79
2021/05/13 09:34:31;;;;;;;5.47;3.20;;;;;;;19.89;46.30;99831.98;125817;1099;104139;-79
2021/05/13 09:37:11;;;;;;;5.63;3.10;;;;;;;19.96;45.43;99841.66;125747;1099;104309;-78
2021/05/13 09:39:47;;;;;;;4.57;2.93;;;;;;;19.95;45.79;99829.23;125868;1097;105378;-78
2021/05/13 09:42:21;;;;;;;6.83;3.20;;;;;;;19.95;46.29;99831.03;125811;1099;104143;-76
2021/05/13 09:44:58;;;;;;;5.30;3.00;;;;;;;19.98;46.17;99828.33;125924;1099;104259;-77
2021/05/13 09:47:35;;;;;;;4.80;3.00;;;;;;;19.94;45.76;99840.78;125837;1099;104286;-77
2021/05/13 09:50:11;;;;;;;6.03;2.70;;;;;;;19.83;45.40;99843.58;125818;1099;104163;-78
2021/05/13 09:53:02;;;;;;;7.10;3.10;;;;;;;19.67;45.65;99837.54;125732;1099;104259;-79
2021/05/13 09:55:34;;;;;;;5.83;3.10;;;;;;;19.66;45.78;99846.41;125544;1099;118250;-78
2021/05/13 09:58:08;;;;;;;7.30;3.20;;;;;;;19.70;46.05;99853.47;125584;1099;104223;-78
2021/05/13 10:00:48;;;;;;;5.80;2.90;;;;;;;19.78;45.89;99852.54;125659;1098;104232;-81
2021/05/13 10:03:21;;;;;;;6.40;3.53;;;;;;;19.73;46.58;99841.92;125601;1099;104159;-78
2021/05/13 10:05:54;;;;;;;5.07;2.80;;;;;;;19.69;46.37;99848.17;126720;1099;106129;-78
2021/05/13 10:08:24;;;;;;;5.53;3.22;;;;;;;19.70;46.42;99853.47;125568;1099;102128;-78
2021/05/13 10:11:03;;;;;;;5.93;3.30;;;;;;;19.56;46.60;99850.97;125351;1099;104377;-80
2021/05/13 10:14:03;;;;;;;4.57;3.10;;;;;;;19.45;46.42;99852.01;125496;1098;104442;-77
2021/05/13 10:16:50;;;;;;;5.43;3.10;;;;;;;19.40;47.17;99868.02;124843;1102;112291;-78
2021/05/13 10:19:43;;;;;;;4.60;3.00;;;;;;;19.15;46.71;99854.06;124858;1102;102301;-78
2021/05/13 10:22:41;;;;;;;4.57;3.13;;;;;;;19.01;47.52;99867.48;124845;1099;104166;-78
2021/05/13 10:25:29;;;;;;;8.33;3.40;;;;;;;18.74;47.59;99866.80;124848;1102;104145;-77
2021/05/13 10:28:04;;;;;;;6.40;3.17;;;;;;;18.50;48.14;99866.08;124900;1099;104179;-77
2021/05/13 10:30:37;;;;;;;9.90;3.37;;;;;;;18.21;48.19;99868.05;124921;1099;104194;-76
2021/05/13 10:33:44;;;;;;;5.17;3.40;;;;;;;18.00;48.38;99871.68;124948;1102;102458;-77
2021/05/13 10:36:24;;;;;;;5.13;2.73;;;;;;;17.84;48.76;99866.44;124883;1102;104300;-76
2021/05/13 10:39:21;;;;;;;6.37;3.20;;;;;;;17.71;48.71;99873.53;124987;1099;104301;-76
2021/05/13 10:41:51;;;;;;;6.30;3.10;;;;;;;17.59;49.04;99868.27;125012;1102;104297;-76
2021/05/13 10:44:39;;;;;;;5.47;3.40;;;;;;;17.50;49.09;99873.59;124993;1102;105896;-76
2021/05/13 10:47:44;;;;;;;8.37;3.93;;;;;;;17.27;50.00;99877.20;124992;1102;106861;-81
2021/05/13 10:50:41;;;;;;;5.70;3.40;;;;;;;17.02;50.30;99868.40;125063;1102;104152;-80
2021/05/13 10:53:49;;;;;;;7.40;3.60;;;;;;;16.70;49.96;99872.78;125017;1102;104238;-80
2021/05/13 10:56:32;;;;;;;7.73;3.63;;;;;;;16.51;50.65;99879.80;125079;1102;104163;-79
2021/05/13 10:59:14;;;;;;;7.93;3.70;;;;;;;16.31;50.68;99886.83;125090;1099;104307;-79
2021/05/13 11:01:51;;;;;;;7.80;3.97;;;;;;;16.17;51.70;99890.34;124876;1099;104274;-79
2021/05/13 11:04:36;;;;;;;5.87;3.77;;;;;;;16.05;51.46;99892.04;124904;1102;104284;-79
2021/05/13 11:07:28;;;;;;;7.70;4.30;;;;;;;15.89;52.14;99888.45;124916;1102;104162;-78
2021/05/13 11:10:07;;;;;;;7.30;3.80;;;;;;;15.76;52.58;99901.59;125181;1099;104249;-80
2021/05/13 11:13:18;;;;;;;5.33;3.60;;;;;;;15.68;51.85;99899.80;125216;1102;104300;-80
2021/05/13 11:15:53;;;;;;;9.10;4.37;;;;;;;15.55;52.15;99893.54;125854;1099;104207;-77
2021/05/13 11:18:29;;;;;;;6.60;3.85;;;;;;;15.48;53.34;99889.11;125032;1102;104336;-78
2021/05/13 11:21:00;;;;;;;6.30;3.50;;;;;;;15.39;53.52;99893.44;125078;1099;104287;-79
2021/05/13 11:23:50;;;;;;;8.70;4.33;;;;;;;15.32;53.83;99894.30;125169;1099;104323;-81
2021/05/13 11:26:24;;;;;;;6.90;4.03;;;;;;;15.26;53.19;99900.41;125057;1102;104312;-79
2021/05/13 11:29:12;;;;;;;9.63;4.40;;;;;;;15.30;53.80;99900.44;125106;1102;104210;-78
2021/05/13 11:31:51;;;;;;;6.87;3.57;;;;;;;15.27;54.13;99899.55;125193;1101;104313;-80
2021/05/13 11:34:26;;;;;;;5.43;3.50;;;;;;;15.29;54.48;99894.28;125006;1099;104172;-79
2021/05/13 11:36:58;;;;;;;6.77;3.97;;;;;;;15.25;53.85;99895.12;125051;1099;104142;-79
2021/05/13 11:39:35;;;;;;;6.37;3.80;;;;;;;15.23;53.94;99895.11;125063;1102;104427;-77
2021/05/13 11:42:10;;;;;;;8.67;3.97;;;;;;;15.20;54.86;99889.80;125063;1101;104143;-78
2021/05/13 11:44:41;;;;;;;7.57;4.03;;;;;;;15.12;54.32;99880.06;125094;1102;104613;-77
2021/05/13 11:47:29;;;;;;;6.30;3.62;;;;;;;15.06;55.73;99880.89;125053;1099;104338;-78
2021/05/13 11:50:09;;;;;;;4.27;3.23;;;;;;;14.96;55.09;99874.66;125537;1099;101796;-79